sensor_id;sensor_type;location;lat;lon;timestamp;pressure;altitude;pressure_sealevel;temperature;humidity
73383;BME280;61600;48.126;11.542;2023-04-25T00:02:19;94997.22;;;10.75;58.08
73383;BME280;61600;48.126;11.542;2023-04-25T00:04:45;94998.78;;;10.63;58.53
73383;BME280;61600;48.126;11.542;2023-04-25T00:07:11;94993.38;;;10.76;57.99
73383;BME280;61600;48.126;11.542;2023-04-25T00:09:38;94993.78;;;10.83;57.87
73383;BME280;61600;48.126;11.542;2023-04-25T00:12:04;94991.06;;;10.97;57.53
73383;BME280;61600;48.126;11.542;2023-04-25T00:14:29;94991.97;;;10.79;58.01
73383;BME280;61600;48.126;11.542;2023-04-25T00:16:55;95008.78;;;10.81;57.88
73383;BME280;61600;48.126;11.542;2023-04-25T00:19:21;95012.63;;;10.93;57.56
73383;BME280;61600;48.126;11.542;2023-04-25T00:21:47;95015.16;;;10.90;57.39
73383;BME280;61600;48.126;11.542;2023-04-25T00:24:13;95002.72;;;10.84;57.66
73383;BME280;61600;48.126;11.542;2023-04-25T00:26:39;95000.53;;;10.86;57.63
73383;BME280;61600;48.126;11.542;2023-04-25T00:29:04;95014.81;;;10.91;57.61
73383;BME280;61600;48.126;11.542;2023-04-25T00:31:30;95014.81;;;10.91;57.52
73383;BME280;61600;48.126;11.542;2023-04-25T00:33:56;95008.50;;;10.96;57.12
73383;BME280;61600;48.126;11.542;2023-04-25T00:36:22;95008.69;;;10.99;56.99
73383;BME280;61600;48.126;11.542;2023-04-25T00:38:47;95003.47;;;10.89;57.68
73383;BME280;61600;48.126;11.542;2023-04-25T00:41:13;94997.69;;;10.91;57.36
73383;BME280;61600;48.126;11.542;2023-04-25T00:43:39;94999.22;;;10.83;57.37
73383;BME280;61600;48.126;11.542;2023-04-25T00:46:06;94997.41;;;10.92;57.49
73383;BME280;61600;48.126;11.542;2023-04-25T00:48:36;94995.50;;;10.93;57.15
73383;BME280;61600;48.126;11.542;2023-04-25T00:51:01;94995.50;;;10.93;57.30
73383;BME280;61600;48.126;11.542;2023-04-25T00:53:28;94996.09;;;10.90;57.22
73383;BME280;61600;48.126;11.542;2023-04-25T00:55:54;94983.88;;;10.87;57.53
73383;BME280;61600;48.126;11.542;2023-04-25T00:58:21;94983.91;;;11.01;56.91
73383;BME280;61600;48.126;11.542;2023-04-25T01:00:48;94978.47;;;11.01;57.17
73383;BME280;61600;48.126;11.542;2023-04-25T01:03:16;94983.09;;;11.00;57.12
73383;BME280;61600;48.126;11.542;2023-04-25T01:05:43;94989.34;;;11.01;57.19
73383;BME280;61600;48.126;11.542;2023-04-25T01:08:09;94987.81;;;10.95;57.23
73383;BME280;61600;48.126;11.542;2023-04-25T01:10:35;94999.22;;;10.97;57.25
73383;BME280;61600;48.126;11.542;2023-04-25T01:13:02;94993.06;;;10.91;57.23
73383;BME280;61600;48.126;11.542;2023-04-25T01:15:28;94989.44;;;10.82;57.41
73383;BME280;61600;48.126;11.542;2023-04-25T01:17:54;94983.00;;;10.65;57.89
73383;BME280;61600;48.126;11.542;2023-04-25T01:20:22;94989.84;;;10.62;57.97
73383;BME280;61600;48.126;11.542;2023-04-25T01:22:50;94974.44;;;10.58;58.04
73383;BME280;61600;48.126;11.542;2023-04-25T01:25:15;94983.97;;;10.41;58.18
73383;BME280;61600;48.126;11.542;2023-04-25T01:27:42;94987.41;;;10.47;58.23
73383;BME280;61600;48.126;11.542;2023-04-25T01:30:09;94985.78;;;10.46;58.07
73383;BME280;61600;48.126;11.542;2023-04-25T01:32:35;94987.91;;;10.63;57.97
73383;BME280;61600;48.126;11.542;2023-04-25T01:35:09;94986.41;;;10.11;59.39
73383;BME280;61600;48.126;11.542;2023-04-25T01:37:37;94978.66;;;10.50;58.31
73383;BME280;61600;48.126;11.542;2023-04-25T01:40:03;94980.56;;;10.36;58.37
73383;BME280;61600;48.126;11.542;2023-04-25T01:42:32;94983.28;;;10.49;58.13
73383;BME280;61600;48.126;11.542;2023-04-25T01:44:58;94981.38;;;10.36;57.97
73383;BME280;61600;48.126;11.542;2023-04-25T01:47:23;94983.06;;;10.46;58.56
73383;BME280;61600;48.126;11.542;2023-04-25T01:49:49;94978.66;;;10.36;58.64
73383;BME280;61600;48.126;11.542;2023-04-25T01:52:15;94977.97;;;10.44;58.35
73383;BME280;61600;48.126;11.542;2023-04-25T01:54:41;94981.78;;;10.43;58.44
73383;BME280;61600;48.126;11.542;2023-04-25T01:57:10;94984.50;;;10.43;58.17
73383;BME280;61600;48.126;11.542;2023-04-25T01:59:36;94977.53;;;10.37;58.36
73383;BME280;61600;48.126;11.542;2023-04-25T02:02:02;94970.88;;;10.30;58.13
73383;BME280;61600;48.126;11.542;2023-04-25T02:04:31;94976.94;;;10.40;58.14
73383;BME280;61600;48.126;11.542;2023-04-25T02:06:57;94961.31;;;10.46;57.85
73383;BME280;61600;48.126;11.542;2023-04-25T02:09:23;94960.63;;;10.40;57.81
73383;BME280;61600;48.126;11.542;2023-04-25T02:11:49;94959.81;;;10.40;57.80
73383;BME280;61600;48.126;11.542;2023-04-25T02:14:18;94970.78;;;10.35;57.99
73383;BME280;61600;48.126;11.542;2023-04-25T02:16:44;94972.72;;;10.34;58.04
73383;BME280;61600;48.126;11.542;2023-04-25T02:19:10;94973.28;;;10.31;58.17
73383;BME280;61600;48.126;11.542;2023-04-25T02:21:42;94972.28;;;10.27;58.15
73383;BME280;61600;48.126;11.542;2023-04-25T02:24:08;94980.94;;;10.29;58.11
73383;BME280;61600;48.126;11.542;2023-04-25T02:26:34;94977.75;;;10.41;57.92
73383;BME280;61600;48.126;11.542;2023-04-25T02:29:00;94973.22;;;10.36;57.92
73383;BME280;61600;48.126;11.542;2023-04-25T02:31:26;94970.00;;;10.34;57.90
73383;BME280;61600;48.126;11.542;2023-04-25T02:33:52;94951.75;;;10.35;57.76
73383;BME280;61600;48.126;11.542;2023-04-25T02:36:17;94963.63;;;10.25;57.94
73383;BME280;61600;48.126;11.542;2023-04-25T02:38:43;94966.66;;;10.24;57.92
73383;BME280;61600;48.126;11.542;2023-04-25T02:41:09;94960.91;;;10.25;57.90
73383;BME280;61600;48.126;11.542;2023-04-25T02:43:35;94959.06;;;10.21;58.09
73383;BME280;61600;48.126;11.542;2023-04-25T02:46:01;94964.34;;;10.31;57.49
73383;BME280;61600;48.126;11.542;2023-04-25T02:48:26;94958.09;;;10.17;57.61
73383;BME280;61600;48.126;11.542;2023-04-25T02:50:53;94960.31;;;10.28;57.30
73383;BME280;61600;48.126;11.542;2023-04-25T02:53:19;94961.91;;;10.29;57.44
73383;BME280;61600;48.126;11.542;2023-04-25T02:55:45;94962.94;;;10.47;56.96
73383;BME280;61600;48.126;11.542;2023-04-25T02:58:10;94966.56;;;10.42;57.05
73383;BME280;61600;48.126;11.542;2023-04-25T03:00:36;94964.94;;;10.41;57.19
73383;BME280;61600;48.126;11.542;2023-04-25T03:03:10;94965.19;;;10.13;57.72
73383;BME280;61600;48.126;11.542;2023-04-25T03:05:36;94969.81;;;10.12;58.07
73383;BME280;61600;48.126;11.542;2023-04-25T03:08:02;94968.75;;;9.94;58.54
73383;BME280;61600;48.126;11.542;2023-04-25T03:10:34;94964.16;;;10.27;57.67
73383;BME280;61600;48.126;11.542;2023-04-25T03:13:00;94955.69;;;10.10;57.99
73383;BME280;61600;48.126;11.542;2023-04-25T03:15:26;94960.91;;;9.93;59.01
73383;BME280;61600;48.126;11.542;2023-04-25T03:17:51;94954.28;;;9.99;59.18
73383;BME280;61600;48.126;11.542;2023-04-25T03:20:17;94953.69;;;10.02;58.65
73383;BME280;61600;48.126;11.542;2023-04-25T03:22:43;94943.31;;;10.04;59.04
73383;BME280;61600;48.126;11.542;2023-04-25T03:25:09;94943.75;;;10.11;58.89
73383;BME280;61600;48.126;11.542;2023-04-25T03:27:35;94941.69;;;10.03;60.13
73383;BME280;61600;48.126;11.542;2023-04-25T03:30:01;94937.22;;;9.80;59.85
73383;BME280;61600;48.126;11.542;2023-04-25T03:32:27;94934.16;;;10.00;59.69
73383;BME280;61600;48.126;11.542;2023-04-25T03:34:53;94942.50;;;9.71;60.51
73383;BME280;61600;48.126;11.542;2023-04-25T03:37:19;94943.16;;;9.82;60.52
73383;BME280;61600;48.126;11.542;2023-04-25T03:39:45;94941.13;;;9.74;60.64
73383;BME280;61600;48.126;11.542;2023-04-25T03:42:10;94949.75;;;9.94;59.95
73383;BME280;61600;48.126;11.542;2023-04-25T03:44:36;94945.59;;;9.83;60.12
73383;BME280;61600;48.126;11.542;2023-04-25T03:47:02;94942.41;;;9.63;61.02
73383;BME280;61600;48.126;11.542;2023-04-25T03:49:27;94950.19;;;9.50;60.81
73383;BME280;61600;48.126;11.542;2023-04-25T03:51:53;94951.53;;;9.53;60.77
73383;BME280;61600;48.126;11.542;2023-04-25T03:54:19;94943.59;;;9.57;60.66
73383;BME280;61600;48.126;11.542;2023-04-25T03:56:45;94943.16;;;9.49;60.98
73383;BME280;61600;48.126;11.542;2023-04-25T03:59:10;94945.53;;;9.70;60.74
73383;BME280;61600;48.126;11.542;2023-04-25T04:01:36;94942.22;;;9.73;60.62
73383;BME280;61600;48.126;11.542;2023-04-25T04:04:02;94951.97;;;9.41;61.62
73383;BME280;61600;48.126;11.542;2023-04-25T04:06:28;94944.66;;;9.74;60.79
73383;BME280;61600;48.126;11.542;2023-04-25T04:08:54;94947.94;;;9.71;60.72
73383;BME280;61600;48.126;11.542;2023-04-25T04:11:20;94947.16;;;9.71;60.91
73383;BME280;61600;48.126;11.542;2023-04-25T04:13:46;94944.53;;;9.66;60.83
73383;BME280;61600;48.126;11.542;2023-04-25T04:16:12;94940.72;;;9.48;61.18
73383;BME280;61600;48.126;11.542;2023-04-25T04:18:38;94949.91;;;9.52;61.31
73383;BME280;61600;48.126;11.542;2023-04-25T04:21:04;94950.56;;;9.44;61.90
73383;BME280;61600;48.126;11.542;2023-04-25T04:23:30;94937.25;;;9.61;61.35
73383;BME280;61600;48.126;11.542;2023-04-25T04:25:55;94935.19;;;9.72;60.80
73383;BME280;61600;48.126;11.542;2023-04-25T04:28:21;94930.72;;;9.62;61.39
73383;BME280;61600;48.126;11.542;2023-04-25T04:30:47;94938.72;;;9.72;60.36
73383;BME280;61600;48.126;11.542;2023-04-25T04:33:13;94938.28;;;9.65;61.60
73383;BME280;61600;48.126;11.542;2023-04-25T04:35:41;94946.13;;;9.67;61.36
73383;BME280;61600;48.126;11.542;2023-04-25T04:38:07;94951.88;;;9.46;61.09
73383;BME280;61600;48.126;11.542;2023-04-25T04:40:33;94947.84;;;9.63;61.32
73383;BME280;61600;48.126;11.542;2023-04-25T04:42:58;94959.56;;;9.58;61.85
73383;BME280;61600;48.126;11.542;2023-04-25T04:45:24;94954.13;;;9.58;61.50
73383;BME280;61600;48.126;11.542;2023-04-25T04:47:50;94965.75;;;9.64;62.17
73383;BME280;61600;48.126;11.542;2023-04-25T04:50:16;94959.34;;;9.54;62.33
73383;BME280;61600;48.126;11.542;2023-04-25T04:52:42;94949.94;;;9.66;61.74
73383;BME280;61600;48.126;11.542;2023-04-25T04:55:08;94951.56;;;9.67;61.79
73383;BME280;61600;48.126;11.542;2023-04-25T04:57:34;94948.09;;;9.80;61.25
73383;BME280;61600;48.126;11.542;2023-04-25T05:00:01;94943.97;;;9.82;61.08
73383;BME280;61600;48.126;11.542;2023-04-25T05:02:26;94944.31;;;9.62;61.39
73383;BME280;61600;48.126;11.542;2023-04-25T05:04:52;94946.63;;;10.01;60.40
73383;BME280;61600;48.126;11.542;2023-04-25T05:07:18;94944.78;;;9.83;60.98
73383;BME280;61600;48.126;11.542;2023-04-25T05:09:44;94953.06;;;9.40;61.80
73383;BME280;61600;48.126;11.542;2023-04-25T05:12:10;94949.56;;;9.72;61.82
73383;BME280;61600;48.126;11.542;2023-04-25T05:14:36;94947.03;;;9.62;62.37
73383;BME280;61600;48.126;11.542;2023-04-25T05:17:03;94947.47;;;9.50;62.83
73383;BME280;61600;48.126;11.542;2023-04-25T05:19:34;94943.28;;;9.58;62.19
73383;BME280;61600;48.126;11.542;2023-04-25T05:22:00;94943.59;;;9.57;62.19
73383;BME280;61600;48.126;11.542;2023-04-25T05:24:25;94943.66;;;9.51;62.42
73383;BME280;61600;48.126;11.542;2023-04-25T05:26:51;94942.31;;;9.68;62.03
73383;BME280;61600;48.126;11.542;2023-04-25T05:29:17;94941.81;;;9.66;61.92
73383;BME280;61600;48.126;11.542;2023-04-25T05:31:44;94949.03;;;9.57;61.99
73383;BME280;61600;48.126;11.542;2023-04-25T05:34:12;94939.34;;;9.83;61.66
73383;BME280;61600;48.126;11.542;2023-04-25T05:36:40;94941.34;;;9.77;62.19
73383;BME280;61600;48.126;11.542;2023-04-25T05:39:06;94941.34;;;9.77;62.04
73383;BME280;61600;48.126;11.542;2023-04-25T05:41:33;94939.88;;;9.85;61.90
73383;BME280;61600;48.126;11.542;2023-04-25T05:44:00;94942.41;;;9.63;62.53
73383;BME280;61600;48.126;11.542;2023-04-25T05:46:26;94943.97;;;9.82;62.82
73383;BME280;61600;48.126;11.542;2023-04-25T05:48:52;94946.19;;;9.80;62.29
73383;BME280;61600;48.126;11.542;2023-04-25T05:51:18;94938.25;;;9.84;62.40
73383;BME280;61600;48.126;11.542;2023-04-25T05:53:44;94948.84;;;9.67;63.27
73383;BME280;61600;48.126;11.542;2023-04-25T05:56:10;94968.63;;;9.35;64.32
73383;BME280;61600;48.126;11.542;2023-04-25T05:58:36;94966.94;;;9.20;65.69
73383;BME280;61600;48.126;11.542;2023-04-25T06:01:02;94976.63;;;8.65;68.12
73383;BME280;61600;48.126;11.542;2023-04-25T06:03:28;94963.50;;;8.48;69.15
73383;BME280;61600;48.126;11.542;2023-04-25T06:05:55;94975.00;;;8.40;69.32
73383;BME280;61600;48.126;11.542;2023-04-25T06:08:21;94984.56;;;8.28;69.92
73383;BME280;61600;48.126;11.542;2023-04-25T06:10:47;94981.03;;;8.03;72.16
73383;BME280;61600;48.126;11.542;2023-04-25T06:13:13;94973.75;;;7.99;72.34
73383;BME280;61600;48.126;11.542;2023-04-25T06:15:39;94970.66;;;8.11;72.79
73383;BME280;61600;48.126;11.542;2023-04-25T06:18:06;94962.88;;;8.33;72.88
73383;BME280;61600;48.126;11.542;2023-04-25T06:20:32;94956.56;;;8.37;72.66
73383;BME280;61600;48.126;11.542;2023-04-25T06:22:58;94955.50;;;8.38;71.73
73383;BME280;61600;48.126;11.542;2023-04-25T06:25:24;94963.97;;;8.56;73.19
73383;BME280;61600;48.126;11.542;2023-04-25T06:27:50;94957.09;;;8.63;73.21
73383;BME280;61600;48.126;11.542;2023-04-25T06:30:15;94957.97;;;8.59;73.20
73383;BME280;61600;48.126;11.542;2023-04-25T06:32:43;94959.09;;;8.76;71.93
73383;BME280;61600;48.126;11.542;2023-04-25T06:35:09;94958.00;;;8.77;72.96
73383;BME280;61600;48.126;11.542;2023-04-25T06:37:35;94951.22;;;8.98;72.33
73383;BME280;61600;48.126;11.542;2023-04-25T06:40:01;94951.13;;;8.42;72.74
73383;BME280;61600;48.126;11.542;2023-04-25T06:42:27;94966.44;;;8.76;72.55
73383;BME280;61600;48.126;11.542;2023-04-25T06:44:53;94963.44;;;8.77;72.89
73383;BME280;61600;48.126;11.542;2023-04-25T06:47:19;94954.94;;;8.84;72.21
73383;BME280;61600;48.126;11.542;2023-04-25T06:49:45;94950.81;;;9.10;71.99
73383;BME280;61600;48.126;11.542;2023-04-25T06:52:11;94956.72;;;9.12;71.13
73383;BME280;61600;48.126;11.542;2023-04-25T06:54:37;94959.91;;;9.00;69.79
73383;BME280;61600;48.126;11.542;2023-04-25T06:57:03;94955.78;;;9.40;71.18
73383;BME280;61600;48.126;11.542;2023-04-25T06:59:29;94959.00;;;9.05;71.06
73383;BME280;61600;48.126;11.542;2023-04-25T07:01:55;94962.75;;;9.09;71.60
73383;BME280;61600;48.126;11.542;2023-04-25T07:04:21;94960.31;;;9.26;70.98
73383;BME280;61600;48.126;11.542;2023-04-25T07:06:47;94954.09;;;9.44;70.84
73383;BME280;61600;48.126;11.542;2023-04-25T07:09:13;94952.41;;;9.48;70.81
73383;BME280;61600;48.126;11.542;2023-04-25T07:11:39;94958.34;;;9.32;71.19
73383;BME280;61600;48.126;11.542;2023-04-25T07:14:05;94950.22;;;9.64;69.49
73383;BME280;61600;48.126;11.542;2023-04-25T07:16:31;94947.31;;;9.93;69.92
73383;BME280;61600;48.126;11.542;2023-04-25T07:18:56;94947.41;;;9.88;70.22
73383;BME280;61600;48.126;11.542;2023-04-25T07:21:22;94943.16;;;9.82;69.92
73383;BME280;61600;48.126;11.542;2023-04-25T07:23:48;94941.88;;;9.93;68.02
73383;BME280;61600;48.126;11.542;2023-04-25T07:26:14;94942.72;;;10.07;66.23
73383;BME280;61600;48.126;11.542;2023-04-25T07:28:40;94945.16;;;10.09;68.23
73383;BME280;61600;48.126;11.542;2023-04-25T07:31:05;94945.41;;;10.26;67.31
73383;BME280;61600;48.126;11.542;2023-04-25T07:33:31;94948.84;;;9.99;65.33
73383;BME280;61600;48.126;11.542;2023-04-25T07:35:57;94937.44;;;10.16;66.66
73383;BME280;61600;48.126;11.542;2023-04-25T07:38:23;94943.00;;;9.92;66.09
73383;BME280;61600;48.126;11.542;2023-04-25T07:40:49;94942.31;;;10.14;66.63
73383;BME280;61600;48.126;11.542;2023-04-25T07:43:15;94935.91;;;10.10;66.49
73383;BME280;61600;48.126;11.542;2023-04-25T07:45:43;94941.78;;;10.17;65.72
73383;BME280;61600;48.126;11.542;2023-04-25T07:48:09;94936.41;;;10.12;66.82
73383;BME280;61600;48.126;11.542;2023-04-25T07:50:35;94930.53;;;10.37;66.60
73383;BME280;61600;48.126;11.542;2023-04-25T07:53:01;94937.47;;;10.57;66.17
73383;BME280;61600;48.126;11.542;2023-04-25T07:55:27;94932.91;;;10.38;66.28
73383;BME280;61600;48.126;11.542;2023-04-25T07:57:53;94934.75;;;10.29;67.13
73383;BME280;61600;48.126;11.542;2023-04-25T08:00:19;94926.91;;;10.69;65.91
73383;BME280;61600;48.126;11.542;2023-04-25T08:02:45;94934.94;;;10.60;64.52
73383;BME280;61600;48.126;11.542;2023-04-25T08:05:11;94936.56;;;10.61;64.79
73383;BME280;61600;48.126;11.542;2023-04-25T08:07:40;94931.00;;;10.52;63.65
73383;BME280;61600;48.126;11.542;2023-04-25T08:10:07;94924.94;;;10.96;63.53
73383;BME280;61600;48.126;11.542;2023-04-25T08:12:33;94932.50;;;10.99;62.63
73383;BME280;61600;48.126;11.542;2023-04-25T08:14:59;94928.78;;;11.31;62.94
73383;BME280;61600;48.126;11.542;2023-04-25T08:17:25;94931.03;;;11.16;61.19
73383;BME280;61600;48.126;11.542;2023-04-25T08:19:51;94922.97;;;11.24;60.04
73383;BME280;61600;48.126;11.542;2023-04-25T08:22:17;94923.00;;;11.69;59.29
73383;BME280;61600;48.126;11.542;2023-04-25T08:24:43;94921.13;;;11.91;59.60
73383;BME280;61600;48.126;11.542;2023-04-25T08:27:08;94927.13;;;11.80;59.23
73383;BME280;61600;48.126;11.542;2023-04-25T08:29:35;94924.97;;;11.54;59.87
73383;BME280;61600;48.126;11.542;2023-04-25T08:32:01;94926.31;;;11.21;58.73
73383;BME280;61600;48.126;11.542;2023-04-25T08:34:26;94921.63;;;11.71;58.65
73383;BME280;61600;48.126;11.542;2023-04-25T08:36:52;94931.09;;;11.96;58.31
73383;BME280;61600;48.126;11.542;2023-04-25T08:39:18;94934.28;;;11.76;59.47
73383;BME280;61600;48.126;11.542;2023-04-25T08:41:44;94944.31;;;11.67;60.34
73383;BME280;61600;48.126;11.542;2023-04-25T08:44:20;94931.75;;;11.79;59.62
73383;BME280;61600;48.126;11.542;2023-04-25T08:46:46;94927.97;;;11.67;60.58
73383;BME280;61600;48.126;11.542;2023-04-25T08:49:17;94928.09;;;11.84;58.17
73383;BME280;61600;48.126;11.542;2023-04-25T08:51:47;94937.63;;;11.73;56.68
73383;BME280;61600;48.126;11.542;2023-04-25T08:54:14;94946.28;;;11.52;56.82
73383;BME280;61600;48.126;11.542;2023-04-25T08:56:47;94948.53;;;11.37;55.08
73383;BME280;61600;48.126;11.542;2023-04-25T08:59:13;94940.69;;;11.58;53.37
73383;BME280;61600;48.126;11.542;2023-04-25T09:01:40;94939.41;;;11.55;51.02
73383;BME280;61600;48.126;11.542;2023-04-25T09:04:06;94927.66;;;11.46;51.81
73383;BME280;61600;48.126;11.542;2023-04-25T09:06:35;94929.56;;;12.12;51.52
73383;BME280;61600;48.126;11.542;2023-04-25T09:09:05;94935.38;;;11.88;50.54
73383;BME280;61600;48.126;11.542;2023-04-25T09:11:35;94934.75;;;11.91;49.99
73383;BME280;61600;48.126;11.542;2023-04-25T09:16:58;94936.59;;;12.75;49.74
73383;BME280;61600;48.126;11.542;2023-04-25T09:19:26;94932.44;;;12.86;49.11
73383;BME280;61600;48.126;11.542;2023-04-25T09:21:57;94924.84;;;12.66;48.89
73383;BME280;61600;48.126;11.542;2023-04-25T09:27:09;94935.16;;;13.25;47.55
73383;BME280;61600;48.126;11.542;2023-04-25T09:29:39;94930.34;;;13.57;46.48
73383;BME280;61600;48.126;11.542;2023-04-25T09:32:21;94934.94;;;13.13;46.45
73383;BME280;61600;48.126;11.542;2023-04-25T09:34:49;94941.66;;;13.07;46.18
73383;BME280;61600;48.126;11.542;2023-04-25T09:37:24;94941.91;;;13.36;45.71
73383;BME280;61600;48.126;11.542;2023-04-25T09:39:55;94942.84;;;13.23;46.16
73383;BME280;61600;48.126;11.542;2023-04-25T09:42:23;94937.72;;;13.39;46.10
73383;BME280;61600;48.126;11.542;2023-04-25T09:44:57;94948.34;;;13.66;46.11
73383;BME280;61600;48.126;11.542;2023-04-25T09:47:25;94938.38;;;13.53;46.49
73383;BME280;61600;48.126;11.542;2023-04-25T09:49:53;94936.72;;;13.18;45.11
73383;BME280;61600;48.126;11.542;2023-04-25T09:52:21;94938.69;;;13.51;45.43
73383;BME280;61600;48.126;11.542;2023-04-25T09:54:48;94939.31;;;13.83;44.77
73383;BME280;61600;48.126;11.542;2023-04-25T09:57:16;94951.09;;;13.75;45.45
73383;BME280;61600;48.126;11.542;2023-04-25T09:59:47;94939.03;;;13.67;44.55
73383;BME280;61600;48.126;11.542;2023-04-25T10:02:15;94940.47;;;13.82;45.05
73383;BME280;61600;48.126;11.542;2023-04-25T10:04:41;94942.06;;;13.83;45.10
73383;BME280;61600;48.126;11.542;2023-04-25T10:07:12;94955.91;;;13.43;45.98
73383;BME280;61600;48.126;11.542;2023-04-25T10:09:39;94943.66;;;13.15;47.28
73383;BME280;61600;48.126;11.542;2023-04-25T10:12:07;94953.53;;;12.94;48.25
73383;BME280;61600;48.126;11.542;2023-04-25T10:14:34;94941.41;;;13.34;47.24
73383;BME280;61600;48.126;11.542;2023-04-25T10:17:00;94939.19;;;13.62;46.73
73383;BME280;61600;48.126;11.542;2023-04-25T10:19:27;94929.34;;;13.87;45.76
73383;BME280;61600;48.126;11.542;2023-04-25T10:22:35;94927.25;;;14.10;45.46
73383;BME280;61600;48.126;11.542;2023-04-25T10:24:55;94926.75;;;14.25;44.55
73383;BME280;61600;48.126;11.542;2023-04-25T10:27:22;94935.66;;;13.79;45.17
73383;BME280;61600;48.126;11.542;2023-04-25T10:30:02;94934.19;;;13.81;45.21
73383;BME280;61600;48.126;11.542;2023-04-25T10:32:33;94946.53;;;13.27;47.70
73383;BME280;61600;48.126;11.542;2023-04-25T10:35:28;94953.63;;;12.80;50.97
73383;BME280;61600;48.126;11.542;2023-04-25T10:38:10;94960.84;;;12.15;55.26
73383;BME280;61600;48.126;11.542;2023-04-25T10:40:38;94965.09;;;11.63;54.47
73383;BME280;61600;48.126;11.542;2023-04-25T10:45:59;94974.16;;;11.36;54.06
73383;BME280;61600;48.126;11.542;2023-04-25T10:48:28;94982.16;;;11.32;53.89
73383;BME280;61600;48.126;11.542;2023-04-25T10:51:10;94982.78;;;11.02;56.07
73383;BME280;61600;48.126;11.542;2023-04-25T10:53:37;94993.63;;;11.43;55.09
73383;BME280;61600;48.126;11.542;2023-04-25T10:56:22;94990.41;;;11.77;54.69
73383;BME280;61600;48.126;11.542;2023-04-25T10:58:50;95003.69;;;11.42;56.05
73383;BME280;61600;48.126;11.542;2023-04-25T11:01:20;95006.97;;;11.17;58.07
73383;BME280;61600;48.126;11.542;2023-04-25T11:03:46;95004.28;;;11.53;57.96
73383;BME280;61600;48.126;11.542;2023-04-25T11:06:30;95005.84;;;11.68;57.06
73383;BME280;61600;48.126;11.542;2023-04-25T11:09:00;95013.63;;;11.96;55.84
73383;BME280;61600;48.126;11.542;2023-04-25T11:11:26;95004.97;;;12.17;56.25
73383;BME280;61600;48.126;11.542;2023-04-25T11:13:55;95002.72;;;12.19;54.03
73383;BME280;61600;48.126;11.542;2023-04-25T11:16:24;95001.47;;;12.25;53.82
73383;BME280;61600;48.126;11.542;2023-04-25T11:18:56;95018.16;;;12.76;52.47
73383;BME280;61600;48.126;11.542;2023-04-25T11:21:22;95016.47;;;12.36;49.93
73383;BME280;61600;48.126;11.542;2023-04-25T11:23:48;95026.97;;;12.73;50.63
73383;BME280;61600;48.126;11.542;2023-04-25T11:26:14;95021.28;;;12.61;50.43
73383;BME280;61600;48.126;11.542;2023-04-25T11:28:40;95027.09;;;12.37;48.18
73383;BME280;61600;48.126;11.542;2023-04-25T11:31:10;95035.72;;;12.62;49.61
73383;BME280;61600;48.126;11.542;2023-04-25T11:33:36;95037.34;;;12.63;50.08
73383;BME280;61600;48.126;11.542;2023-04-25T11:36:01;95047.91;;;12.33;50.57
73383;BME280;61600;48.126;11.542;2023-04-25T11:38:28;95046.91;;;12.29;51.82
73383;BME280;61600;48.126;11.542;2023-04-25T11:40:54;95055.59;;;12.31;51.73
73383;BME280;61600;48.126;11.542;2023-04-25T11:43:22;95058.56;;;11.49;54.01
73383;BME280;61600;48.126;11.542;2023-04-25T11:45:51;95070.84;;;11.61;55.37
73383;BME280;61600;48.126;11.542;2023-04-25T11:48:18;95063.97;;;11.77;56.24
73383;BME280;61600;48.126;11.542;2023-04-25T11:50:44;95066.78;;;11.72;57.54
73383;BME280;61600;48.126;11.542;2023-04-25T11:53:11;95067.69;;;11.67;58.67
73383;BME280;61600;48.126;11.542;2023-04-25T11:55:37;95083.69;;;11.46;59.48
73383;BME280;61600;48.126;11.542;2023-04-25T11:58:04;95077.50;;;11.41;59.67
73383;BME280;61600;48.126;11.542;2023-04-25T12:00:30;95068.34;;;11.23;60.06
73383;BME280;61600;48.126;11.542;2023-04-25T12:02:57;95069.06;;;11.15;59.70
73383;BME280;61600;48.126;11.542;2023-04-25T12:05:29;95060.59;;;11.17;59.38
73383;BME280;61600;48.126;11.542;2023-04-25T12:07:55;95081.06;;;11.14;59.25
73383;BME280;61600;48.126;11.542;2023-04-25T12:10:21;95085.56;;;11.05;58.93
73383;BME280;61600;48.126;11.542;2023-04-25T12:12:48;95084.81;;;11.05;58.95
73383;BME280;61600;48.126;11.542;2023-04-25T12:15:23;95087.38;;;10.82;59.29
73383;BME280;61600;48.126;11.542;2023-04-25T12:17:51;95095.91;;;10.30;60.34
73383;BME280;61600;48.126;11.542;2023-04-25T12:20:19;95093.25;;;10.43;61.16
73383;BME280;61600;48.126;11.542;2023-04-25T12:22:47;95079.88;;;10.61;61.46
73383;BME280;61600;48.126;11.542;2023-04-25T12:28:16;95086.38;;;10.78;59.82
73383;BME280;61600;48.126;11.542;2023-04-25T12:31:11;95092.56;;;10.97;60.08
73383;BME280;61600;48.126;11.542;2023-04-25T12:33:37;95090.69;;;10.66;61.98
73383;BME280;61600;48.126;11.542;2023-04-25T12:36:05;95085.78;;;10.95;59.78
73383;BME280;61600;48.126;11.542;2023-04-25T12:38:41;95102.91;;;10.82;60.26
73383;BME280;61600;48.126;11.542;2023-04-25T12:41:07;95093.78;;;11.19;60.02
73383;BME280;61600;48.126;11.542;2023-04-25T12:43:33;95087.50;;;11.45;58.47
73383;BME280;61600;48.126;11.542;2023-04-25T12:46:00;95095.69;;;11.05;59.29
73383;BME280;61600;48.126;11.542;2023-04-25T12:48:26;95097.31;;;11.33;58.72
73383;BME280;61600;48.126;11.542;2023-04-25T12:50:52;95098.25;;;10.69;60.81
73383;BME280;61600;48.126;11.542;2023-04-25T12:53:19;95103.22;;;10.94;59.86
73383;BME280;61600;48.126;11.542;2023-04-25T12:55:46;95101.00;;;10.82;60.86
73383;BME280;61600;48.126;11.542;2023-04-25T12:58:16;95105.81;;;10.72;61.21
73383;BME280;61600;48.126;11.542;2023-04-25T13:00:43;95109.63;;;10.71;61.35
73383;BME280;61600;48.126;11.542;2023-04-25T13:03:10;95113.94;;;11.04;61.57
73383;BME280;61600;48.126;11.542;2023-04-25T13:05:37;95120.00;;;10.69;60.68